createdAt,value
2023-02-18T07:39:45.597Z,4.00
2023-02-18T07:55:56.181Z,4.60
2023-02-18T08:10:08.960Z,5.30
2023-02-18T08:23:05.772Z,6.00
2023-02-18T08:35:14.424Z,6.60
2023-02-18T08:46:50.140Z,7.30
2023-02-18T08:51:44.028Z,7.60
2023-02-18T09:02:32.156Z,8.40
2023-02-18T09:12:34.713Z,9.00
2023-02-18T09:17:28.366Z,9.40
2023-02-18T09:22:22.258Z,9.70
2023-02-18T09:27:15.804Z,10.10
2023-02-18T09:32:14.522Z,10.50
2023-02-18T09:37:14.847Z,11.20
2023-02-18T09:42:12.949Z,11.70
2023-02-18T09:47:11.980Z,12.30
2023-02-18T09:52:17.870Z,12.80
2023-02-18T09:57:23.501Z,13.30
2023-02-18T10:02:20.115Z,13.90
2023-02-18T10:07:22.436Z,14.50
2023-02-18T10:12:19.885Z,14.80
2023-02-18T10:17:16.585Z,15.00
2023-02-18T10:22:15.001Z,15.10
2023-02-18T10:27:11.338Z,15.20
2023-02-18T10:32:14.080Z,15.50
2023-02-18T10:37:22.716Z,15.90
2023-02-18T10:42:29.333Z,16.30
2023-02-18T10:47:35.827Z,16.60
2023-02-18T10:52:35.085Z,17.00
2023-02-18T10:57:30.232Z,17.50
2023-02-18T11:02:27.202Z,18.00
2023-02-18T11:07:24.067Z,18.20
2023-02-18T11:12:23.228Z,18.50
2023-02-18T11:17:22.204Z,18.40
2023-02-18T11:22:20.447Z,18.60
2023-02-18T11:27:23.063Z,18.90
2023-02-18T11:32:17.285Z,18.70
2023-02-18T11:37:14.681Z,18.90
2023-02-18T11:42:08.601Z,18.60
2023-02-18T11:47:07.470Z,18.10
2023-02-18T11:52:19.585Z,17.70
2023-02-18T11:57:15.805Z,17.50
2023-02-18T12:02:29.474Z,17.20
2023-02-18T12:07:28.487Z,17.10
2023-02-18T12:12:29.057Z,17.40
2023-02-18T12:17:47.330Z,18.20
2023-02-18T12:22:46.704Z,18.80
2023-02-18T12:27:51.710Z,18.80
2023-02-18T12:32:53.613Z,18.70
2023-02-18T12:38:02.273Z,18.70
2023-02-18T12:43:01.610Z,18.50
2023-02-18T12:48:16.935Z,18.60
2023-02-18T12:53:50.283Z,19.20
2023-02-18T12:58:57.567Z,19.30
2023-02-18T13:04:24.702Z,19.00
2023-02-18T13:09:29.666Z,18.70
2023-02-18T13:14:28.655Z,18.40
2023-02-18T13:19:25.754Z,18.30
2023-02-18T13:24:26.275Z,18.40
2023-02-18T13:29:27.864Z,18.20
2023-02-18T13:34:28.948Z,18.00
2023-02-18T13:39:25.248Z,19.20
2023-02-18T13:45:06.357Z,20.60
2023-02-18T13:50:15.299Z,22.50
2023-02-18T13:55:20.690Z,23.40
2023-02-18T14:00:22.435Z,23.60
2023-02-18T14:05:25.351Z,24.50
2023-02-18T14:10:33.731Z,26.30
2023-02-18T14:16:02.105Z,26.40
2023-02-18T14:21:07.184Z,27.00
2023-02-18T14:26:07.944Z,27.90
2023-02-18T14:31:04.428Z,26.30
2023-02-18T14:36:08.029Z,24.60
2023-02-18T14:41:37.240Z,22.50
2023-02-18T14:46:41.090Z,21.70
2023-02-18T14:51:37.454Z,23.10
2023-02-18T14:56:31.255Z,24.10
2023-02-18T15:01:26.766Z,24.20
2023-02-18T15:06:25.457Z,24.60
2023-02-18T15:11:22.964Z,25.40
2023-02-18T15:16:21.560Z,22.90
2023-02-18T15:21:22.915Z,20.30
2023-02-18T15:26:19.730Z,18.90
2023-02-18T15:31:15.613Z,18.10
2023-02-18T15:36:16.895Z,17.50
2023-02-18T15:41:15.777Z,16.80
2023-02-18T15:46:16.198Z,16.20
2023-02-18T15:51:17.774Z,15.80
2023-02-18T15:56:16.687Z,15.50
2023-02-18T16:06:33.107Z,15.10
2023-02-18T16:11:28.557Z,14.30
2023-02-18T16:16:26.908Z,13.80
2023-02-18T16:21:35.247Z,13.60
2023-02-18T16:26:42.378Z,13.30
2023-02-18T16:31:36.264Z,13.00
2023-02-18T16:36:30.511Z,12.60
2023-02-18T16:41:26.397Z,12.30
2023-02-18T16:46:23.690Z,12.00
